Arabia, OH

6:13 AM EDT on August 28, 2015 (GMT -0400)
South Ironton | | Change Station
CLOSE
Current Station
Personal Weather Station
Location: Ironton, OH
Elevation: 551 ft
Nearby Weather Stations

Elev 551 ft 38.52 °N, 82.67 °W | Updated 3 minutes ago

Overcast
Overcast
55.0 °F
Feels Like 55.0 °F
N
0.0
Wind Variable Wind from ENE

Today
High -- | Low -- °F
--% Chance of Precip.
Yesterday
High -- | Low -- °F
Precip. -- in
6:55 AM 8:07 PM
Waxing Gibbous, 97% visible
Pressure 30.15 in
Visibility 0.2 miles
Clouds
Dew Point 53 °F
Humidity 92%
Rainfall 0.00 in
Snow Depth Not available.
UV Not available.
Pollen 8.80 out of 12
Air Quality Not available.
Flu Activity Not available.
SPECI KHTS 281011Z 35003KT 1/4SM FG VV002 13/13 A3015 RMK AO2 T01280128
Pressure 30.15 in
Visibility 0.2 miles
Clouds
Dew Point 53 °F
Humidity 92%
Rainfall 0.00 in
Snow Depth Not available.
UV Not available.
Pollen 8.80 out of 12
Air Quality Not available.
Flu Activity Not available.
SPECI KHTS 281011Z 35003KT 1/4SM FG VV002 13/13 A3015 RMK AO2 T01280128

10-Day Weather Forecast

×

Almanac

Astronomy

Aug. 28, 2015 Rise Set
Actual Time
Civil Twilight
Nautical Twilight
Astronomical Twilight
Moon
Length of Visible Light
Length of Day
Tomorrow will be .
, % of the Moon is Illuminated

Today's Extremes

State Highs State Lows

Community

WunderPhotos

Upload Photos

1,850,355 photos uploaded!

WunderBlogs® & News

Nearby

Air Quality

  Air Quality AQ Index Pollutant
Not available.

Snow Depth

Station Depth Elevation

Earthquake Activity

City Distance Mag. Time & Date
Minimum magnitude displayed is 2.5.

Coastal Water Temperatures

Place Temperature

Stations

Nearby Weather Stations

Station Location Temp. Windchill Dew Point Humidity Wind Precip. Elev Updated Type